PORTS® Data Listing: 8519483 Bergen Point West Reach, NY

CO-OPS RAW PORTS DATA

************************      PRELIMINARY DATA      ************************** 

     THIS RAW DATA HAS NOT BEEN SUBJECT TO THE NATIONAL OCEAN SERVICE'S        
     QUALITY CONTROL OR QUALITY ASSURANCE PROCEDURES AND DOES NOT MEET         
     THE CRITERIA AND STANDARDS OF OFFICIAL NATIONAL OCEAN SERVICE             
     DATA.  IT IS RELEASED FOR LIMITED PUBLIC USE AS PRELIMINARY DATA TO       
     BE USED ONLY WITH APPROPRIATE CAUTION.                                    

************************      PRELIMINARY DATA      ************************** 


       CD   -   Calendar date
       T    -   Time
       TZ   -   Timezone
       PW   -   Predicted water level (feet above MLLW)
       OW   -   Observed water level (feet above MLLW)
       WS   -   Wind speed (knots)
       WD   -   Wind direction (degrees true)
       WG   -   Wind gust (knots)
       AT   -   Air temperature (degrees farenheit)
       WT   -   Water temperature (degrees farenheit)
       AP   -   Air pressure (millibars)
       SA   -   Salinty (PSU - Practical Salinity Units)
       SG   -   Specific gravity
       RH   -   Relative humidity
       AG   -   Air gap (feet)
       VI   -   Visibility (nautical miles)

       ** NOTE **
       A variable that has its data fields filled with "9"s, indicates that
       data was not collected for that sample period.
       **********


STATION NAME: Bergen Point West Reach (8519483)
****************************************************************************************************
    CD       T    TZ    PW     OW    WS   WD   WG    AT    WT    AP    SA    SG     RH    AG   VI
****************************************************************************************************
2019/09/21 21:00 EDT    1.24   1.35 -999 -999 -999  73.4  71.8 1021.7 -9.9 -9.999 -99.9 -99.99 -9.99
2019/09/21 21:06 EDT    1.26   1.39 -999 -999 -999  73.4  71.8 1021.7 -9.9 -9.999 -99.9 -99.99 -9.99
2019/09/21 21:12 EDT    1.27   1.40 -999 -999 -999  73.2  71.8 1021.7 -9.9 -9.999 -99.9 -99.99 -9.99
2019/09/21 21:18 EDT    1.29   1.44 -999 -999 -999  73.2  71.8 1021.7 -9.9 -9.999 -99.9 -99.99 -9.99
2019/09/21 21:24 EDT    1.32   1.50 -999 -999 -999  73.0  71.8 1021.7 -9.9 -9.999 -99.9 -99.99 -9.99
2019/09/21 21:30 EDT    1.35   1.57 -999 -999 -999  72.7  71.8 1021.7 -9.9 -9.999 -99.9 -99.99 -9.99
2019/09/21 21:36 EDT    1.38   1.63 -999 -999 -999  72.3  71.8 1021.8 -9.9 -9.999 -99.9 -99.99 -9.99
2019/09/21 21:42 EDT    1.42   1.70 -999 -999 -999  72.1  71.8 1021.9 -9.9 -9.999 -99.9 -99.99 -9.99
2019/09/21 21:48 EDT    1.46   1.77 -999 -999 -999  71.8  71.8 1022.0 -9.9 -9.999 -99.9 -99.99 -9.99
2019/09/21 21:54 EDT    1.51   1.85 -999 -999 -999  71.4  71.8 1021.9 -9.9 -9.999 -99.9 -99.99 -9.99
2019/09/21 22:00 EDT    1.56   1.93 -999 -999 -999  71.2  71.8 1021.9 -9.9 -9.999 -99.9 -99.99 -9.99
2019/09/21 22:06 EDT    1.62   2.03 -999 -999 -999  71.1  71.8 1021.9 -9.9 -9.999 -99.9 -99.99 -9.99
2019/09/21 22:12 EDT    1.68   2.12 -999 -999 -999  70.9  71.8 1022.0 -9.9 -9.999 -99.9 -99.99 -9.99
2019/09/21 22:18 EDT    1.75   2.20 -999 -999 -999  70.5  71.8 1022.0 -9.9 -9.999 -99.9 -99.99 -9.99
2019/09/21 22:24 EDT    1.82   2.32 -999 -999 -999  70.3  71.8 1022.1 -9.9 -9.999 -99.9 -99.99 -9.99
2019/09/21 22:30 EDT    1.90   2.43 -999 -999 -999  70.3  71.8 1022.0 -9.9 -9.999 -99.9 -99.99 -9.99
2019/09/21 22:36 EDT    1.98   2.53 -999 -999 -999  70.2  71.6 1022.0 -9.9 -9.999 -99.9 -99.99 -9.99
2019/09/21 22:42 EDT    2.07   2.63 -999 -999 -999  70.0  71.6 1022.0 -9.9 -9.999 -99.9 -99.99 -9.99
2019/09/21 22:48 EDT    2.16   2.67 -999 -999 -999  70.0  71.6 1021.9 -9.9 -9.999 -99.9 -99.99 -9.99
2019/09/21 22:54 EDT    2.25   2.81 -999 -999 -999  70.2  71.6 1021.9 -9.9 -9.999 -99.9 -99.99 -9.99
2019/09/21 23:00 EDT    2.35   2.91 -999 -999 -999  69.8  71.6 1022.0 -9.9 -9.999 -99.9 -99.99 -9.99
2019/09/21 23:06 EDT    2.44   2.99 -999 -999 -999  69.6  71.6 1022.1 -9.9 -9.999 -99.9 -99.99 -9.99
2019/09/21 23:12 EDT    2.55   3.07 -999 -999 -999  69.4  71.6 1022.1 -9.9 -9.999 -99.9 -99.99 -9.99
2019/09/21 23:18 EDT    2.65   3.18 -999 -999 -999  69.4  71.6 1022.2 -9.9 -9.999 -99.9 -99.99 -9.99
2019/09/21 23:24 EDT    2.75   3.26 -999 -999 -999  69.3  71.6 1022.2 -9.9 -9.999 -99.9 -99.99 -9.99
2019/09/21 23:30 EDT    2.86   3.35 -999 -999 -999  69.1  71.6 1022.2 -9.9 -9.999 -99.9 -99.99 -9.99
2019/09/21 23:36 EDT    2.96   3.45 -999 -999 -999  68.9  71.6 1022.2 -9.9 -9.999 -99.9 -99.99 -9.99
2019/09/21 23:42 EDT    3.06   3.55 -999 -999 -999  68.7  71.6 1022.1 -9.9 -9.999 -99.9 -99.99 -9.99
2019/09/21 23:48 EDT    3.17   3.64 -999 -999 -999  68.5  71.6 1022.1 -9.9 -9.999 -99.9 -99.99 -9.99
2019/09/21 23:54 EDT    3.27   3.74 -999 -999 -999  68.5  71.6 1022.1 -9.9 -9.999 -99.9 -99.99 -9.99
2019/09/22 00:00 EDT    3.37   3.83 -999 -999 -999  68.5  71.6 1022.0 -9.9 -9.999 -99.9 -99.99 -9.99
2019/09/22 00:06 EDT    3.46   3.91 -999 -999 -999  68.5  71.6 1022.0 -9.9 -9.999 -99.9 -99.99 -9.99
2019/09/22 00:12 EDT    3.56   3.99 -999 -999 -999  68.4  71.6 1021.9 -9.9 -9.999 -99.9 -99.99 -9.99
2019/09/22 00:18 EDT    3.65   4.09 -999 -999 -999  68.4  71.6 1021.9 -9.9 -9.999 -99.9 -99.99 -9.99
2019/09/22 00:24 EDT    3.74   4.17 -999 -999 -999  68.4  71.6 1022.0 -9.9 -9.999 -99.9 -99.99 -9.99
2019/09/22 00:30 EDT    3.82   4.24 -999 -999 -999  68.2  71.6 1021.9 -9.9 -9.999 -99.9 -99.99 -9.99
2019/09/22 00:36 EDT    3.90   4.32 -999 -999 -999  68.0  71.6 1021.9 -9.9 -9.999 -99.9 -99.99 -9.99
2019/09/22 00:42 EDT    3.97   4.39 -999 -999 -999  68.0  71.6 1021.8 -9.9 -9.999 -99.9 -99.99 -9.99
2019/09/22 00:48 EDT    4.04   4.45 -999 -999 -999  67.8  71.4 1021.9 -9.9 -9.999 -99.9 -99.99 -9.99
2019/09/22 00:54 EDT    4.10   4.51 -999 -999 -999  67.6  71.4 1021.9 -9.9 -9.999 -99.9 -99.99 -9.99
2019/09/22 01:00 EDT    4.16   4.55 -999 -999 -999  67.5  71.4 1021.8 -9.9 -9.999 -99.9 -99.99 -9.99
2019/09/22 01:06 EDT    4.22   4.60 -999 -999 -999  67.3  71.4 1021.8 -9.9 -9.999 -99.9 -99.99 -9.99
2019/09/22 01:12 EDT    4.27   4.63 -999 -999 -999  67.1  71.4 1021.8 -9.9 -9.999 -99.9 -99.99 -9.99
2019/09/22 01:18 EDT    4.31   4.69 -999 -999 -999  66.9  71.4 1021.8 -9.9 -9.999 -99.9 -99.99 -9.99
2019/09/22 01:24 EDT    4.35   4.74 -999 -999 -999  66.7  71.4 1021.8 -9.9 -9.999 -99.9 -99.99 -9.99
2019/09/22 01:30 EDT    4.39   4.77 -999 -999 -999  66.6  71.4 1021.9 -9.9 -9.999 -99.9 -99.99 -9.99
2019/09/22 01:36 EDT    4.41   4.81 -999 -999 -999  66.6  71.4 1021.9 -9.9 -9.999 -99.9 -99.99 -9.99
2019/09/22 01:42 EDT    4.44   4.83 -999 -999 -999  66.4  71.4 1021.8 -9.9 -9.999 -99.9 -99.99 -9.99
2019/09/22 01:48 EDT    4.46   4.86 -999 -999 -999  66.4  71.4 1021.8 -9.9 -9.999 -99.9 -99.99 -9.99
2019/09/22 01:54 EDT    4.47   4.86 -999 -999 -999  66.2  71.4 1021.8 -9.9 -9.999 -99.9 -99.99 -9.99
2019/09/22 02:00 EDT    4.49   4.89 -999 -999 -999  66.0  71.4 1021.8 -9.9 -9.999 -99.9 -99.99 -9.99
2019/09/22 02:06 EDT    4.49   4.89 -999 -999 -999  65.8  71.4 1021.9 -9.9 -9.999 -99.9 -99.99 -9.99
2019/09/22 02:12 EDT    4.50   4.90 -999 -999 -999  65.8  71.4 1021.9 -9.9 -9.999 -99.9 -99.99 -9.99
2019/09/22 02:18 EDT    4.49   4.90 -999 -999 -999  65.7  71.4 1021.9 -9.9 -9.999 -99.9 -99.99 -9.99
2019/09/22 02:24 EDT    4.49   4.89 -999 -999 -999  65.8  71.4 1021.9 -9.9 -9.999 -99.9 -99.99 -9.99
2019/09/22 02:30 EDT    4.48   4.88 -999 -999 -999  65.8  71.4 1021.8 -9.9 -9.999 -99.9 -99.99 -9.99
2019/09/22 02:36 EDT    4.47   4.86 -999 -999 -999  65.7  71.4 1021.8 -9.9 -9.999 -99.9 -99.99 -9.99
2019/09/22 02:42 EDT    4.45   4.85 -999 -999 -999  65.3  71.4 1021.8 -9.9 -9.999 -99.9 -99.99 -9.99
2019/09/22 02:48 EDT    4.43   4.83 -999 -999 -999  65.1  71.4 1021.9 -9.9 -9.999 -99.9 -99.99 -9.99
2019/09/22 02:54 EDT    4.41   4.80 -999 -999 -999  64.9  71.4 1021.8 -9.9 -9.999 -99.9 -99.99 -9.99
2019/09/22 03:00 EDT    4.38   4.76 -999 -999 -999  65.1  71.4 1021.8 -9.9 -9.999 -99.9 -99.99 -9.99
2019/09/22 03:06 EDT    4.35   4.72 -999 -999 -999  65.1  71.4 1021.7 -9.9 -9.999 -99.9 -99.99 -9.99
2019/09/22 03:12 EDT    4.32   4.67 -999 -999 -999  65.1  71.4 1021.6 -9.9 -9.999 -99.9 -99.99 -9.99
2019/09/22 03:18 EDT    4.28   4.62 -999 -999 -999  65.3  71.4 1021.6 -9.9 -9.999 -99.9 -99.99 -9.99
2019/09/22 03:24 EDT    4.24   4.54 -999 -999 -999  65.3  71.4 1021.6 -9.9 -9.999 -99.9 -99.99 -9.99
2019/09/22 03:30 EDT    4.19   4.50 -999 -999 -999  65.1  71.2 1021.6 -9.9 -9.999 -99.9 -99.99 -9.99
2019/09/22 03:36 EDT    4.14   4.39 -999 -999 -999  64.9  71.4 1021.6 -9.9 -9.999 -99.9 -99.99 -9.99
2019/09/22 03:42 EDT    4.09   4.32 -999 -999 -999  64.8  71.4 1021.6 -9.9 -9.999 -99.9 -99.99 -9.99
2019/09/22 03:48 EDT    4.03   4.24 -999 -999 -999  64.6  71.2 1021.5 -9.9 -9.999 -99.9 -99.99 -9.99
2019/09/22 03:54 EDT    3.97   4.16 -999 -999 -999  64.4  71.2 1021.5 -9.9 -9.999 -99.9 -99.99 -9.99
2019/09/22 04:00 EDT    3.90   4.09 -999 -999 -999  64.2  71.2 1021.5 -9.9 -9.999 -99.9 -99.99 -9.99
2019/09/22 04:06 EDT    3.83   4.00 -999 -999 -999  64.2  71.2 1021.5 -9.9 -9.999 -99.9 -99.99 -9.99
2019/09/22 04:12 EDT    3.76   3.91 -999 -999 -999  64.0  71.2 1021.5 -9.9 -9.999 -99.9 -99.99 -9.99
2019/09/22 04:18 EDT    3.68   3.82 -999 -999 -999  63.9  71.2 1021.5 -9.9 -9.999 -99.9 -99.99 -9.99
2019/09/22 04:24 EDT    3.60   3.73 -999 -999 -999  63.7  71.2 1021.5 -9.9 -9.999 -99.9 -99.99 -9.99
2019/09/22 04:30 EDT    3.52   3.64 -999 -999 -999  63.7  71.2 1021.5 -9.9 -9.999 -99.9 -99.99 -9.99
2019/09/22 04:36 EDT    3.44   3.55 -999 -999 -999  63.9  71.2 1021.4 -9.9 -9.999 -99.9 -99.99 -9.99
2019/09/22 04:42 EDT    3.35   3.47 -999 -999 -999  63.9  71.2 1021.4 -9.9 -9.999 -99.9 -99.99 -9.99
2019/09/22 04:48 EDT    3.25   3.38 -999 -999 -999  63.7  71.2 1021.4 -9.9 -9.999 -99.9 -99.99 -9.99
2019/09/22 04:54 EDT    3.16   3.30 -999 -999 -999  63.5  71.2 1021.5 -9.9 -9.999 -99.9 -99.99 -9.99
2019/09/22 05:00 EDT    3.06   3.21 -999 -999 -999  63.5  71.2 1021.5 -9.9 -9.999 -99.9 -99.99 -9.99
2019/09/22 05:06 EDT    2.97   3.13 -999 -999 -999  63.5  71.2 1021.5 -9.9 -9.999 -99.9 -99.99 -9.99
2019/09/22 05:12 EDT    2.87   3.03 -999 -999 -999  63.3  71.2 1021.4 -9.9 -9.999 -99.9 -99.99 -9.99
2019/09/22 05:18 EDT    2.77   2.97 -999 -999 -999  63.3  71.2 1021.4 -9.9 -9.999 -99.9 -99.99 -9.99
2019/09/22 05:24 EDT    2.67   2.88 -999 -999 -999  63.3  71.2 1021.4 -9.9 -9.999 -99.9 -99.99 -9.99
2019/09/22 05:30 EDT    2.57   2.83 -999 -999 -999  63.1  71.2 1021.4 -9.9 -9.999 -99.9 -99.99 -9.99
2019/09/22 05:36 EDT    2.47   2.75 -999 -999 -999  63.1  71.2 1021.5 -9.9 -9.999 -99.9 -99.99 -9.99
2019/09/22 05:42 EDT    2.37   2.67 -999 -999 -999  63.0  71.1 1021.5 -9.9 -9.999 -99.9 -99.99 -9.99
2019/09/22 05:48 EDT    2.28   2.61 -999 -999 -999  62.8  71.1 1021.5 -9.9 -9.999 -99.9 -99.99 -9.99
2019/09/22 05:54 EDT    2.18   2.56 -999 -999 -999  62.6  71.1 1021.5 -9.9 -9.999 -99.9 -99.99 -9.99
2019/09/22 06:00 EDT    2.09   2.50 -999 -999 -999  62.4  71.1 1021.5 -9.9 -9.999 -99.9 -99.99 -9.99
2019/09/22 06:06 EDT    2.00   2.45 -999 -999 -999  62.4  71.1 1021.5 -9.9 -9.999 -99.9 -99.99 -9.99
2019/09/22 06:12 EDT    1.91   2.39 -999 -999 -999  62.4  71.1 1021.4 -9.9 -9.999 -99.9 -99.99 -9.99
2019/09/22 06:18 EDT    1.83   2.33 -999 -999 -999  62.4  71.1 1021.4 -9.9 -9.999 -99.9 -99.99 -9.99
2019/09/22 06:24 EDT    1.75   2.29 -999 -999 -999  62.4  71.1 1021.3 -9.9 -9.999 -99.9 -99.99 -9.99
2019/09/22 06:30 EDT    1.68   2.24 -999 -999 -999  62.2  71.1 1021.3 -9.9 -9.999 -99.9 -99.99 -9.99
2019/09/22 06:36 EDT    1.61   2.19 -999 -999 -999  62.2  71.1 1021.4 -9.9 -9.999 -99.9 -99.99 -9.99
2019/09/22 06:42 EDT    1.54   2.14 -999 -999 -999  62.1  71.1 1021.4 -9.9 -9.999 -99.9 -99.99 -9.99
2019/09/22 06:48 EDT    1.48   2.08 -999 -999 -999  62.1  71.1 1021.4 -9.9 -9.999 -99.9 -99.99 -9.99
2019/09/22 06:54 EDT    1.42   2.03 -999 -999 -999  62.1  70.9 1021.4 -9.9 -9.999 -99.9 -99.99 -9.99
2019/09/22 07:00 EDT    1.36   1.98 -999 -999 -999  62.2  70.9 1021.5 -9.9 -9.999 -99.9 -99.99 -9.99
2019/09/22 07:06 EDT    1.32   1.92 -999 -999 -999  62.4  70.9 1021.5 -9.9 -9.999 -99.9 -99.99 -9.99
2019/09/22 07:12 EDT    1.27   1.87 -999 -999 -999  62.4  70.9 1021.6 -9.9 -9.999 -99.9 -99.99 -9.99
2019/09/22 07:18 EDT    1.23   1.82 -999 -999 -999  62.6  70.9 1021.6 -9.9 -9.999 -99.9 -99.99 -9.99
2019/09/22 07:24 EDT    1.20   1.77 -999 -999 -999  63.3  70.9 1021.7 -9.9 -9.999 -99.9 -99.99 -9.99
2019/09/22 07:30 EDT    1.17   1.72 -999 -999 -999  63.7  70.9 1021.8 -9.9 -9.999 -99.9 -99.99 -9.99
2019/09/22 07:36 EDT    1.14   1.68 -999 -999 -999  63.9  70.9 1021.8 -9.9 -9.999 -99.9 -99.99 -9.99
2019/09/22 07:42 EDT    1.12   1.63 -999 -999 -999  64.0  70.9 1021.8 -9.9 -9.999 -99.9 -99.99 -9.99
2019/09/22 07:48 EDT    1.10   1.59 -999 -999 -999  63.7  70.9 1021.8 -9.9 -9.999 -99.9 -99.99 -9.99
2019/09/22 07:54 EDT    1.08   1.55 -999 -999 -999  64.4  70.9 1021.9 -9.9 -9.999 -99.9 -99.99 -9.99
2019/09/22 08:00 EDT    1.07   1.51 -999 -999 -999  65.1  70.9 1022.0 -9.9 -9.999 -99.9 -99.99 -9.99
2019/09/22 08:06 EDT    1.06   1.48 -999 -999 -999  66.0  70.9 1021.8 -9.9 -9.999 -99.9 -99.99 -9.99
2019/09/22 08:12 EDT    1.05   1.45 -999 -999 -999  66.7  70.9 1021.8 -9.9 -9.999 -99.9 -99.99 -9.99
2019/09/22 08:18 EDT    1.05   1.43 -999 -999 -999  67.8  70.9 1021.9 -9.9 -9.999 -99.9 -99.99 -9.99
2019/09/22 08:24 EDT    1.05   1.42 -999 -999 -999  68.2  70.9 1022.0 -9.9 -9.999 -99.9 -99.99 -9.99
2019/09/22 08:30 EDT    1.06   1.41 -999 -999 -999  67.8  70.9 1022.0 -9.9 -9.999 -99.9 -99.99 -9.99
2019/09/22 08:36 EDT    1.06   1.42 -999 -999 -999  68.2  70.9 1022.1 -9.9 -9.999 -99.9 -99.99 -9.99
2019/09/22 08:42 EDT    1.07   1.43 -999 -999 -999  68.7  70.9 1022.0 -9.9 -9.999 -99.9 -99.99 -9.99
2019/09/22 08:48 EDT    1.09   1.44 -999 -999 -999  70.3  70.9 1021.9 -9.9 -9.999 -99.9 -99.99 -9.99
2019/09/22 08:54 EDT    1.10   1.47 -999 -999 -999  70.2  70.9 1021.9 -9.9 -9.999 -99.9 -99.99 -9.99
2019/09/22 09:00 EDT    1.12   1.51 -999 -999 -999  71.2  70.9 1021.9 -9.9 -9.999 -99.9 -99.99 -9.99
2019/09/22 09:06 EDT    1.15   1.54 -999 -999 -999  71.6  71.1 1022.0 -9.9 -9.999 -99.9 -99.99 -9.99
2019/09/22 09:12 EDT    1.17   1.58 -999 -999 -999  70.5  71.1 1021.9 -9.9 -9.999 -99.9 -99.99 -9.99
2019/09/22 09:18 EDT    1.20   1.63 -999 -999 -999  71.1  71.1 1021.8 -9.9 -9.999 -99.9 -99.99 -9.99
2019/09/22 09:24 EDT    1.24   1.68 -999 -999 -999  71.2  71.2 1021.7 -9.9 -9.999 -99.9 -99.99 -9.99
2019/09/22 09:30 EDT    1.28   1.75 -999 -999 -999  72.7  71.2 1021.7 -9.9 -9.999 -99.9 -99.99 -9.99
2019/09/22 09:36 EDT    1.32   1.83 -999 -999 -999  72.5  71.2 1021.8 -9.9 -9.999 -99.9 -99.99 -9.99
2019/09/22 09:42 EDT    1.37   1.90 -999 -999 -999  71.8  71.2 1021.8 -9.9 -9.999 -99.9 -99.99 -9.99
2019/09/22 09:48 EDT    1.42   1.98 -999 -999 -999  70.2  71.2 1021.8 -9.9 -9.999 -99.9 -99.99 -9.99
2019/09/22 09:54 EDT    1.47   2.07 -999 -999 -999  69.4  71.2 1021.7 -9.9 -9.999 -99.9 -99.99 -9.99
2019/09/22 10:00 EDT    1.54   2.18 -999 -999 -999  70.0  71.2 1021.7 -9.9 -9.999 -99.9 -99.99 -9.99
2019/09/22 10:06 EDT    1.60   2.29 -999 -999 -999  70.5  71.4 1021.6 -9.9 -9.999 -99.9 -99.99 -9.99
2019/09/22 10:12 EDT    1.67   2.39 -999 -999 -999  71.2  71.4 1021.4 -9.9 -9.999 -99.9 -99.99 -9.99
2019/09/22 10:18 EDT    1.75   2.50 -999 -999 -999  74.7  71.4 1021.3 -9.9 -9.999 -99.9 -99.99 -9.99
2019/09/22 10:24 EDT    1.83   2.62 -999 -999 -999  75.7  71.4 1021.3 -9.9 -9.999 -99.9 -99.99 -9.99
2019/09/22 10:30 EDT    1.92   2.75 -999 -999 -999  77.2  71.6 1021.2 -9.9 -9.999 -99.9 -99.99 -9.99
2019/09/22 10:36 EDT    2.01   2.88 -999 -999 -999  77.7  71.6 1021.2 -9.9 -9.999 -99.9 -99.99 -9.99
2019/09/22 10:42 EDT    2.11   3.00 -999 -999 -999  78.3  71.6 1021.2 -9.9 -9.999 -99.9 -99.99 -9.99
2019/09/22 10:48 EDT    2.22   3.14 -999 -999 -999  78.6  71.8 1021.1 -9.9 -9.999 -99.9 -99.99 -9.99
2019/09/22 10:54 EDT    2.32   3.28 -999 -999 -999  78.8  71.8 1021.1 -9.9 -9.999 -99.9 -99.99 -9.99
2019/09/22 11:00 EDT    2.44   3.42 -999 -999 -999  79.5  71.8 1021.0 -9.9 -9.999 -99.9 -99.99 -9.99
2019/09/22 11:06 EDT    2.55   3.53 -999 -999 -999  80.2  71.6 1021.0 -9.9 -9.999 -99.9 -99.99 -9.99
2019/09/22 11:12 EDT    2.67   3.66 -999 -999 -999  80.8  71.8 1020.9 -9.9 -9.999 -99.9 -99.99 -9.99
2019/09/22 11:18 EDT    2.79   3.76 -999 -999 -999  81.5  71.8 1020.8 -9.9 -9.999 -99.9 -99.99 -9.99
2019/09/22 11:24 EDT    2.92   3.91 -999 -999 -999  81.9  71.8 1020.7 -9.9 -9.999 -99.9 -99.99 -9.99
2019/09/22 11:30 EDT    3.05   4.02 -999 -999 -999  81.1  71.8 1020.6 -9.9 -9.999 -99.9 -99.99 -9.99
2019/09/22 11:36 EDT    3.18   4.15 -999 -999 -999  81.9  71.8 1020.6 -9.9 -9.999 -99.9 -99.99 -9.99
2019/09/22 11:42 EDT    3.31   4.28 -999 -999 -999  82.0  71.8 1020.7 -9.9 -9.999 -99.9 -99.99 -9.99
2019/09/22 11:48 EDT    3.44   4.42 -999 -999 -999  81.9  71.8 1020.6 -9.9 -9.999 -99.9 -99.99 -9.99
2019/09/22 11:54 EDT    3.57   4.53 -999 -999 -999  82.9  71.8 1020.5 -9.9 -9.999 -99.9 -99.99 -9.99
2019/09/22 12:00 EDT    3.70   4.62 -999 -999 -999  82.8  71.8 1020.6 -9.9 -9.999 -99.9 -99.99 -9.99
2019/09/22 12:06 EDT    3.83   4.72 -999 -999 -999  82.9  71.8 1020.5 -9.9 -9.999 -99.9 -99.99 -9.99
2019/09/22 12:12 EDT    3.95   4.82 -999 -999 -999  83.3  71.6 1020.4 -9.9 -9.999 -99.9 -99.99 -9.99
2019/09/22 12:18 EDT    4.08   4.91 -999 -999 -999  83.3  71.6 1020.3 -9.9 -9.999 -99.9 -99.99 -9.99
2019/09/22 12:24 EDT    4.20   5.00 -999 -999 -999  83.5  71.6 1020.2 -9.9 -9.999 -99.9 -99.99 -9.99
2019/09/22 12:30 EDT    4.32   5.09 -999 -999 -999  82.9  71.6 1020.2 -9.9 -9.999 -99.9 -99.99 -9.99
2019/09/22 12:36 EDT    4.43   5.15 -999 -999 -999  83.5  71.6 1020.2 -9.9 -9.999 -99.9 -99.99 -9.99
2019/09/22 12:42 EDT    4.54   5.21 -999 -999 -999  83.3  71.6 1020.2 -9.9 -9.999 -99.9 -99.99 -9.99
2019/09/22 12:48 EDT    4.64   5.26 -999 -999 -999  83.7  71.6 1020.2 -9.9 -9.999 -99.9 -99.99 -9.99
2019/09/22 12:54 EDT    4.74   5.31 -999 -999 -999  83.3  71.6 1020.1 -9.9 -9.999 -99.9 -99.99 -9.99
2019/09/22 13:00 EDT    4.83   5.36 -999 -999 -999  84.6  71.6 1020.0 -9.9 -9.999 -99.9 -99.99 -9.99
2019/09/22 13:06 EDT    4.92   5.40 -999 -999 -999  84.9  71.6 1019.9 -9.9 -9.999 -99.9 -99.99 -9.99
2019/09/22 13:12 EDT    5.00   5.44 -999 -999 -999  84.9  71.6 1019.8 -9.9 -9.999 -99.9 -99.99 -9.99
2019/09/22 13:18 EDT    5.07   5.48 -999 -999 -999  84.7  71.6 1019.7 -9.9 -9.999 -99.9 -99.99 -9.99
2019/09/22 13:24 EDT    5.14   5.51 -999 -999 -999  84.7  71.6 1019.7 -9.9 -9.999 -99.9 -99.99 -9.99
2019/09/22 13:30 EDT    5.20   5.54 -999 -999 -999  85.5  71.6 1019.6 -9.9 -9.999 -99.9 -99.99 -9.99
2019/09/22 13:36 EDT    5.25   5.56 -999 -999 -999  85.3  71.6 1019.5 -9.9 -9.999 -99.9 -99.99 -9.99
2019/09/22 13:42 EDT    5.30   5.59 -999 -999 -999  85.3  71.6 1019.3 -9.9 -9.999 -99.9 -99.99 -9.99
2019/09/22 13:48 EDT    5.34   5.59 -999 -999 -999  85.6  71.6 1019.3 -9.9 -9.999 -99.9 -99.99 -9.99
2019/09/22 13:54 EDT    5.37   5.61 -999 -999 -999  86.4  71.6 1019.2 -9.9 -9.999 -99.9 -99.99 -9.99
2019/09/22 14:00 EDT    5.40   5.63 -999 -999 -999  86.2  71.6 1019.1 -9.9 -9.999 -99.9 -99.99 -9.99
2019/09/22 14:06 EDT    5.43   5.63 -999 -999 -999  86.7  71.6 1019.0 -9.9 -9.999 -99.9 -99.99 -9.99
2019/09/22 14:12 EDT    5.44   5.66 -999 -999 -999  86.7  71.6 1018.9 -9.9 -9.999 -99.9 -99.99 -9.99
2019/09/22 14:18 EDT    5.45   5.66 -999 -999 -999  86.0  71.6 1018.9 -9.9 -9.999 -99.9 -99.99 -9.99
2019/09/22 14:24 EDT    5.46   5.68 -999 -999 -999  86.4  71.6 1018.8 -9.9 -9.999 -99.9 -99.99 -9.99
2019/09/22 14:30 EDT    5.46   5.67 -999 -999 -999  86.7  71.8 1018.7 -9.9 -9.999 -99.9 -99.99 -9.99
2019/09/22 14:36 EDT    5.46   5.66 -999 -999 -999  87.3  71.8 1018.5 -9.9 -9.999 -99.9 -99.99 -9.99
2019/09/22 14:42 EDT    5.45   5.65 -999 -999 -999  86.5  71.8 1018.4 -9.9 -9.999 -99.9 -99.99 -9.99
2019/09/22 14:48 EDT    5.43 -99.99 -999 -999 -999 -99.9 -99.9 -999.9 -9.9 -9.999 -99.9 -99.99 -9.99
2019/09/22 14:54 EDT    5.41 -99.99 -999 -999 -999 -99.9 -99.9 -999.9 -9.9 -9.999 -99.9 -99.99 -9.99
2019/09/22 15:00 EDT    5.39 -99.99 -999 -999 -999 -99.9 -99.9 -999.9 -9.9 -9.999 -99.9 -99.99 -9.99
2019/09/22 15:06 EDT    5.36 -99.99 -999 -999 -999 -99.9 -99.9 -999.9 -9.9 -9.999 -99.9 -99.99 -9.99
2019/09/22 15:12 EDT    5.33 -99.99 -999 -999 -999 -99.9 -99.9 -999.9 -9.9 -9.999 -99.9 -99.99 -9.99
2019/09/22 15:18 EDT    5.30 -99.99 -999 -999 -999 -99.9 -99.9 -999.9 -9.9 -9.999 -99.9 -99.99 -9.99
2019/09/22 15:24 EDT    5.26 -99.99 -999 -999 -999 -99.9 -99.9 -999.9 -9.9 -9.999 -99.9 -99.99 -9.99
2019/09/22 15:30 EDT    5.22 -99.99 -999 -999 -999 -99.9 -99.9 -999.9 -9.9 -9.999 -99.9 -99.99 -9.99
2019/09/22 15:36 EDT    5.17 -99.99 -999 -999 -999 -99.9 -99.9 -999.9 -9.9 -9.999 -99.9 -99.99 -9.99
2019/09/22 15:42 EDT    5.12 -99.99 -999 -999 -999 -99.9 -99.9 -999.9 -9.9 -9.999 -99.9 -99.99 -9.99
2019/09/22 15:48 EDT    5.07 -99.99 -999 -999 -999 -99.9 -99.9 -999.9 -9.9 -9.999 -99.9 -99.99 -9.99
2019/09/22 15:54 EDT    5.01 -99.99 -999 -999 -999 -99.9 -99.9 -999.9 -9.9 -9.999 -99.9 -99.99 -9.99
2019/09/22 16:00 EDT    4.95 -99.99 -999 -999 -999 -99.9 -99.9 -999.9 -9.9 -9.999 -99.9 -99.99 -9.99
2019/09/22 16:06 EDT    4.89 -99.99 -999 -999 -999 -99.9 -99.9 -999.9 -9.9 -9.999 -99.9 -99.99 -9.99
2019/09/22 16:12 EDT    4.82 -99.99 -999 -999 -999 -99.9 -99.9 -999.9 -9.9 -9.999 -99.9 -99.99 -9.99
2019/09/22 16:18 EDT    4.75 -99.99 -999 -999 -999 -99.9 -99.9 -999.9 -9.9 -9.999 -99.9 -99.99 -9.99
2019/09/22 16:24 EDT    4.68 -99.99 -999 -999 -999 -99.9 -99.9 -999.9 -9.9 -9.999 -99.9 -99.99 -9.99
2019/09/22 16:30 EDT    4.60 -99.99 -999 -999 -999 -99.9 -99.9 -999.9 -9.9 -9.999 -99.9 -99.99 -9.99
2019/09/22 16:36 EDT    4.52 -99.99 -999 -999 -999 -99.9 -99.9 -999.9 -9.9 -9.999 -99.9 -99.99 -9.99
2019/09/22 16:42 EDT    4.44 -99.99 -999 -999 -999 -99.9 -99.9 -999.9 -9.9 -9.999 -99.9 -99.99 -9.99
2019/09/22 16:48 EDT    4.35 -99.99 -999 -999 -999 -99.9 -99.9 -999.9 -9.9 -9.999 -99.9 -99.99 -9.99
2019/09/22 16:54 EDT    4.26 -99.99 -999 -999 -999 -99.9 -99.9 -999.9 -9.9 -9.999 -99.9 -99.99 -9.99
2019/09/22 17:00 EDT    4.17 -99.99 -999 -999 -999 -99.9 -99.9 -999.9 -9.9 -9.999 -99.9 -99.99 -9.99
2019/09/22 17:06 EDT    4.08 -99.99 -999 -999 -999 -99.9 -99.9 -999.9 -9.9 -9.999 -99.9 -99.99 -9.99
2019/09/22 17:12 EDT    3.98 -99.99 -999 -999 -999 -99.9 -99.9 -999.9 -9.9 -9.999 -99.9 -99.99 -9.99
2019/09/22 17:18 EDT    3.88 -99.99 -999 -999 -999 -99.9 -99.9 -999.9 -9.9 -9.999 -99.9 -99.99 -9.99
2019/09/22 17:24 EDT    3.78 -99.99 -999 -999 -999 -99.9 -99.9 -999.9 -9.9 -9.999 -99.9 -99.99 -9.99
2019/09/22 17:30 EDT    3.68 -99.99 -999 -999 -999 -99.9 -99.9 -999.9 -9.9 -9.999 -99.9 -99.99 -9.99
2019/09/22 17:36 EDT    3.58 -99.99 -999 -999 -999 -99.9 -99.9 -999.9 -9.9 -9.999 -99.9 -99.99 -9.99
2019/09/22 17:42 EDT    3.48 -99.99 -999 -999 -999 -99.9 -99.9 -999.9 -9.9 -9.999 -99.9 -99.99 -9.99
2019/09/22 17:48 EDT    3.38 -99.99 -999 -999 -999 -99.9 -99.9 -999.9 -9.9 -9.999 -99.9 -99.99 -9.99
2019/09/22 17:54 EDT    3.27 -99.99 -999 -999 -999 -99.9 -99.9 -999.9 -9.9 -9.999 -99.9 -99.99 -9.99
2019/09/22 18:00 EDT    3.17 -99.99 -999 -999 -999 -99.9 -99.9 -999.9 -9.9 -9.999 -99.9 -99.99 -9.99
2019/09/22 18:06 EDT    3.07 -99.99 -999 -999 -999 -99.9 -99.9 -999.9 -9.9 -9.999 -99.9 -99.99 -9.99
2019/09/22 18:12 EDT    2.97 -99.99 -999 -999 -999 -99.9 -99.9 -999.9 -9.9 -9.999 -99.9 -99.99 -9.99
2019/09/22 18:18 EDT    2.88 -99.99 -999 -999 -999 -99.9 -99.9 -999.9 -9.9 -9.999 -99.9 -99.99 -9.99
2019/09/22 18:24 EDT    2.78 -99.99 -999 -999 -999 -99.9 -99.9 -999.9 -9.9 -9.999 -99.9 -99.99 -9.99
2019/09/22 18:30 EDT    2.69 -99.99 -999 -999 -999 -99.9 -99.9 -999.9 -9.9 -9.999 -99.9 -99.99 -9.99
2019/09/22 18:36 EDT    2.60 -99.99 -999 -999 -999 -99.9 -99.9 -999.9 -9.9 -9.999 -99.9 -99.99 -9.99
2019/09/22 18:42 EDT    2.51 -99.99 -999 -999 -999 -99.9 -99.9 -999.9 -9.9 -9.999 -99.9 -99.99 -9.99
2019/09/22 18:48 EDT    2.42 -99.99 -999 -999 -999 -99.9 -99.9 -999.9 -9.9 -9.999 -99.9 -99.99 -9.99
2019/09/22 18:54 EDT    2.34 -99.99 -999 -999 -999 -99.9 -99.9 -999.9 -9.9 -9.999 -99.9 -99.99 -9.99
2019/09/22 19:00 EDT    2.26 -99.99 -999 -999 -999 -99.9 -99.9 -999.9 -9.9 -9.999 -99.9 -99.99 -9.99
2019/09/22 19:06 EDT    2.18 -99.99 -999 -999 -999 -99.9 -99.9 -999.9 -9.9 -9.999 -99.9 -99.99 -9.99
2019/09/22 19:12 EDT    2.11 -99.99 -999 -999 -999 -99.9 -99.9 -999.9 -9.9 -9.999 -99.9 -99.99 -9.99
2019/09/22 19:18 EDT    2.04 -99.99 -999 -999 -999 -99.9 -99.9 -999.9 -9.9 -9.999 -99.9 -99.99 -9.99
2019/09/22 19:24 EDT    1.97 -99.99 -999 -999 -999 -99.9 -99.9 -999.9 -9.9 -9.999 -99.9 -99.99 -9.99
2019/09/22 19:30 EDT    1.91 -99.99 -999 -999 -999 -99.9 -99.9 -999.9 -9.9 -9.999 -99.9 -99.99 -9.99
2019/09/22 19:36 EDT    1.85 -99.99 -999 -999 -999 -99.9 -99.9 -999.9 -9.9 -9.999 -99.9 -99.99 -9.99
2019/09/22 19:42 EDT    1.79 -99.99 -999 -999 -999 -99.9 -99.9 -999.9 -9.9 -9.999 -99.9 -99.99 -9.99
2019/09/22 19:48 EDT    1.74 -99.99 -999 -999 -999 -99.9 -99.9 -999.9 -9.9 -9.999 -99.9 -99.99 -9.99
2019/09/22 19:54 EDT    1.69 -99.99 -999 -999 -999 -99.9 -99.9 -999.9 -9.9 -9.999 -99.9 -99.99 -9.99
2019/09/22 20:00 EDT    1.64 -99.99 -999 -999 -999 -99.9 -99.9 -999.9 -9.9 -9.999 -99.9 -99.99 -9.99
2019/09/22 20:06 EDT    1.59 -99.99 -999 -999 -999 -99.9 -99.9 -999.9 -9.9 -9.999 -99.9 -99.99 -9.99
2019/09/22 20:12 EDT    1.55 -99.99 -999 -999 -999 -99.9 -99.9 -999.9 -9.9 -9.999 -99.9 -99.99 -9.99
2019/09/22 20:18 EDT    1.51 -99.99 -999 -999 -999 -99.9 -99.9 -999.9 -9.9 -9.999 -99.9 -99.99 -9.99
2019/09/22 20:24 EDT    1.47 -99.99 -999 -999 -999 -99.9 -99.9 -999.9 -9.9 -9.999 -99.9 -99.99 -9.99
2019/09/22 20:30 EDT    1.43 -99.99 -999 -999 -999 -99.9 -99.9 -999.9 -9.9 -9.999 -99.9 -99.99 -9.99
2019/09/22 20:36 EDT    1.39 -99.99 -999 -999 -999 -99.9 -99.9 -999.9 -9.9 -9.999 -99.9 -99.99 -9.99
2019/09/22 20:42 EDT    1.36 -99.99 -999 -999 -999 -99.9 -99.9 -999.9 -9.9 -9.999 -99.9 -99.99 -9.99
2019/09/22 20:48 EDT    1.32 -99.99 -999 -999 -999 -99.9 -99.9 -999.9 -9.9 -9.999 -99.9 -99.99 -9.99
2019/09/22 20:54 EDT    1.29 -99.99 -999 -999 -999 -99.9 -99.9 -999.9 -9.9 -9.999 -99.9 -99.99 -9.99
2019/09/22 21:00 EDT    1.26 -99.99 -999 -999 -999 -99.9 -99.9 -999.9 -9.9 -9.999 -99.9 -99.99 -9.99